sensor_id;sensor_type;location;lat;lon;timestamp;temperature;humidity
78522;SHT31;67819;51.972;5.678;2023-06-22T00:00:13;21.6;62.6
78522;SHT31;67819;51.972;5.678;2023-06-22T00:02:41;21.6;62.3
78522;SHT31;67819;51.972;5.678;2023-06-22T00:05:12;21.6;62.7
78522;SHT31;67819;51.972;5.678;2023-06-22T00:07:41;21.5;63.8
78522;SHT31;67819;51.972;5.678;2023-06-22T00:10:09;21.5;64.1
78522;SHT31;67819;51.972;5.678;2023-06-22T00:12:38;21.5;63.8
78522;SHT31;67819;51.972;5.678;2023-06-22T00:15:07;21.5;63.5
78522;SHT31;67819;51.972;5.678;2023-06-22T00:17:36;21.4;63.8
78522;SHT31;67819;51.972;5.678;2023-06-22T00:20:05;21.4;64.0
78522;SHT31;67819;51.972;5.678;2023-06-22T00:22:35;21.4;64.6
78522;SHT31;67819;51.972;5.678;2023-06-22T00:25:06;21.4;63.0
78522;SHT31;67819;51.972;5.678;2023-06-22T00:27:35;21.4;63.6
78522;SHT31;67819;51.972;5.678;2023-06-22T00:30:05;21.3;64.0
78522;SHT31;67819;51.972;5.678;2023-06-22T00:32:33;21.3;63.9
78522;SHT31;67819;51.972;5.678;2023-06-22T00:35:02;21.3;64.6
78522;SHT31;67819;51.972;5.678;2023-06-22T00:37:31;21.3;64.2
78522;SHT31;67819;51.972;5.678;2023-06-22T00:39:59;21.2;63.0
78522;SHT31;67819;51.972;5.678;2023-06-22T00:42:29;21.2;62.5
78522;SHT31;67819;51.972;5.678;2023-06-22T00:44:58;21.2;63.6
78522;SHT31;67819;51.972;5.678;2023-06-22T00:47:27;21.1;64.2
78522;SHT31;67819;51.972;5.678;2023-06-22T00:49:56;21.1;64.5
78522;SHT31;67819;51.972;5.678;2023-06-22T00:52:25;21.1;62.7
78522;SHT31;67819;51.972;5.678;2023-06-22T00:54:58;21.1;63.4
78522;SHT31;67819;51.972;5.678;2023-06-22T00:57:28;21.0;63.2
78522;SHT31;67819;51.972;5.678;2023-06-22T00:59:57;21.0;62.5
78522;SHT31;67819;51.972;5.678;2023-06-22T01:02:28;21.0;62.7
78522;SHT31;67819;51.972;5.678;2023-06-22T01:04:57;21.0;62.3
78522;SHT31;67819;51.972;5.678;2023-06-22T01:07:30;20.9;63.1
78522;SHT31;67819;51.972;5.678;2023-06-22T01:10:08;20.9;64.4
78522;SHT31;67819;51.972;5.678;2023-06-22T01:12:44;20.9;63.5
78522;SHT31;67819;51.972;5.678;2023-06-22T01:15:18;20.9;64.1
78522;SHT31;67819;51.972;5.678;2023-06-22T01:17:50;20.9;63.6
78522;SHT31;67819;51.972;5.678;2023-06-22T01:20:22;20.9;64.8
78522;SHT31;67819;51.972;5.678;2023-06-22T01:23:05;20.9;64.9
78522;SHT31;67819;51.972;5.678;2023-06-22T01:25:45;20.8;64.9
78522;SHT31;67819;51.972;5.678;2023-06-22T01:28:24;20.8;65.3
78522;SHT31;67819;51.972;5.678;2023-06-22T01:30:57;20.8;64.6
78522;SHT31;67819;51.972;5.678;2023-06-22T01:33:34;20.8;64.4
78522;SHT31;67819;51.972;5.678;2023-06-22T01:36:04;20.7;64.0
78522;SHT31;67819;51.972;5.678;2023-06-22T01:38:34;20.7;64.8
78522;SHT31;67819;51.972;5.678;2023-06-22T01:41:05;20.7;64.6
78522;SHT31;67819;51.972;5.678;2023-06-22T01:43:36;20.6;64.8
78522;SHT31;67819;51.972;5.678;2023-06-22T01:46:05;20.6;64.3
78522;SHT31;67819;51.972;5.678;2023-06-22T01:48:34;20.6;65.1
78522;SHT31;67819;51.972;5.678;2023-06-22T01:51:03;20.5;65.7
78522;SHT31;67819;51.972;5.678;2023-06-22T01:53:32;20.5;65.2
78522;SHT31;67819;51.972;5.678;2023-06-22T01:56:01;20.5;64.5
78522;SHT31;67819;51.972;5.678;2023-06-22T01:58:31;20.4;65.5
78522;SHT31;67819;51.972;5.678;2023-06-22T02:01:09;20.4;65.9
78522;SHT31;67819;51.972;5.678;2023-06-22T02:03:42;20.4;65.7
78522;SHT31;67819;51.972;5.678;2023-06-22T02:06:20;20.4;66.2
78522;SHT31;67819;51.972;5.678;2023-06-22T02:08:55;20.4;66.4
78522;SHT31;67819;51.972;5.678;2023-06-22T02:11:26;20.3;66.4
78522;SHT31;67819;51.972;5.678;2023-06-22T02:13:58;20.3;66.5
78522;SHT31;67819;51.972;5.678;2023-06-22T02:16:27;20.3;66.5
78522;SHT31;67819;51.972;5.678;2023-06-22T02:18:56;20.3;65.4
78522;SHT31;67819;51.972;5.678;2023-06-22T02:21:32;20.3;64.8
78522;SHT31;67819;51.972;5.678;2023-06-22T02:24:03;20.2;65.1
78522;SHT31;67819;51.972;5.678;2023-06-22T02:26:32;20.2;66.5
78522;SHT31;67819;51.972;5.678;2023-06-22T02:29:01;20.2;66.9
78522;SHT31;67819;51.972;5.678;2023-06-22T02:31:29;20.2;66.8
78522;SHT31;67819;51.972;5.678;2023-06-22T02:33:59;20.1;66.4
78522;SHT31;67819;51.972;5.678;2023-06-22T02:36:29;20.1;66.7
78522;SHT31;67819;51.972;5.678;2023-06-22T02:39:01;20.1;66.9
78522;SHT31;67819;51.972;5.678;2023-06-22T02:41:30;20.1;67.3
78522;SHT31;67819;51.972;5.678;2023-06-22T02:43:59;20.1;66.9
78522;SHT31;67819;51.972;5.678;2023-06-22T02:46:30;20.0;67.1
78522;SHT31;67819;51.972;5.678;2023-06-22T02:48:58;20.0;66.7
78522;SHT31;67819;51.972;5.678;2023-06-22T02:51:27;20.0;67.6
78522;SHT31;67819;51.972;5.678;2023-06-22T02:53:55;20.0;67.7
78522;SHT31;67819;51.972;5.678;2023-06-22T02:56:24;19.9;67.7
78522;SHT31;67819;51.972;5.678;2023-06-22T02:58:53;19.9;67.4
78522;SHT31;67819;51.972;5.678;2023-06-22T03:01:26;19.9;67.8
78522;SHT31;67819;51.972;5.678;2023-06-22T03:03:56;19.9;67.9
78522;SHT31;67819;51.972;5.678;2023-06-22T03:06:25;19.9;67.9
78522;SHT31;67819;51.972;5.678;2023-06-22T03:08:58;19.8;67.1
78522;SHT31;67819;51.972;5.678;2023-06-22T03:11:27;19.8;67.2
78522;SHT31;67819;51.972;5.678;2023-06-22T03:13:56;19.8;67.9
78522;SHT31;67819;51.972;5.678;2023-06-22T03:16:26;19.8;68.3
78522;SHT31;67819;51.972;5.678;2023-06-22T03:18:57;19.8;68.5
78522;SHT31;67819;51.972;5.678;2023-06-22T03:21:28;19.7;68.3
78522;SHT31;67819;51.972;5.678;2023-06-22T03:23:58;19.7;68.0
78522;SHT31;67819;51.972;5.678;2023-06-22T03:26:26;19.7;68.4
78522;SHT31;67819;51.972;5.678;2023-06-22T03:28:56;19.7;67.9
78522;SHT31;67819;51.972;5.678;2023-06-22T03:31:25;19.7;68.3
78522;SHT31;67819;51.972;5.678;2023-06-22T03:33:53;19.7;68.7
78522;SHT31;67819;51.972;5.678;2023-06-22T03:36:22;19.7;68.9
78522;SHT31;67819;51.972;5.678;2023-06-22T03:38:51;19.7;69.1
78522;SHT31;67819;51.972;5.678;2023-06-22T03:41:20;19.7;68.8
78522;SHT31;67819;51.972;5.678;2023-06-22T03:43:49;19.7;69.3
78522;SHT31;67819;51.972;5.678;2023-06-22T03:46:17;19.7;68.9
78522;SHT31;67819;51.972;5.678;2023-06-22T03:48:46;19.7;67.8
78522;SHT31;67819;51.972;5.678;2023-06-22T03:51:15;19.7;68.8
78522;SHT31;67819;51.972;5.678;2023-06-22T03:53:43;19.7;68.3
78522;SHT31;67819;51.972;5.678;2023-06-22T03:56:14;19.7;69.2
78522;SHT31;67819;51.972;5.678;2023-06-22T03:58:46;19.7;69.3
78522;SHT31;67819;51.972;5.678;2023-06-22T04:01:15;19.7;69.0
78522;SHT31;67819;51.972;5.678;2023-06-22T04:03:45;19.7;69.3
78522;SHT31;67819;51.972;5.678;2023-06-22T04:06:15;19.7;68.4
78522;SHT31;67819;51.972;5.678;2023-06-22T04:08:45;19.7;68.7
78522;SHT31;67819;51.972;5.678;2023-06-22T04:11:17;19.7;68.8
78522;SHT31;67819;51.972;5.678;2023-06-22T04:13:46;19.7;68.0
78522;SHT31;67819;51.972;5.678;2023-06-22T04:16:15;19.7;69.2
78522;SHT31;67819;51.972;5.678;2023-06-22T04:18:43;19.8;68.1
78522;SHT31;67819;51.972;5.678;2023-06-22T04:21:13;19.8;68.3
78522;SHT31;67819;51.972;5.678;2023-06-22T04:23:42;19.8;69.4
78522;SHT31;67819;51.972;5.678;2023-06-22T04:26:12;19.8;68.8
78522;SHT31;67819;51.972;5.678;2023-06-22T04:28:41;19.8;68.6
78522;SHT31;67819;51.972;5.678;2023-06-22T04:31:15;19.8;69.0
78522;SHT31;67819;51.972;5.678;2023-06-22T04:33:43;19.8;68.5
78522;SHT31;67819;51.972;5.678;2023-06-22T04:36:12;19.9;68.9
78522;SHT31;67819;51.972;5.678;2023-06-22T04:38:41;19.9;69.2
78522;SHT31;67819;51.972;5.678;2023-06-22T04:41:11;19.9;68.7
78522;SHT31;67819;51.972;5.678;2023-06-22T04:43:44;20.0;69.1
78522;SHT31;67819;51.972;5.678;2023-06-22T04:46:18;20.0;70.0
78522;SHT31;67819;51.972;5.678;2023-06-22T04:48:46;20.1;69.5
78522;SHT31;67819;51.972;5.678;2023-06-22T04:51:17;20.1;69.3
78522;SHT31;67819;51.972;5.678;2023-06-22T04:53:48;20.2;69.0
78522;SHT31;67819;51.972;5.678;2023-06-22T04:56:16;20.2;69.1
78522;SHT31;67819;51.972;5.678;2023-06-22T04:58:48;20.2;69.0
78522;SHT31;67819;51.972;5.678;2023-06-22T05:01:18;20.3;69.4
78522;SHT31;67819;51.972;5.678;2023-06-22T05:03:48;20.3;68.9
78522;SHT31;67819;51.972;5.678;2023-06-22T05:06:17;20.3;68.8
78522;SHT31;67819;51.972;5.678;2023-06-22T05:08:46;20.4;69.3
78522;SHT31;67819;51.972;5.678;2023-06-22T05:11:14;20.4;69.1
78522;SHT31;67819;51.972;5.678;2023-06-22T05:13:43;20.4;68.9
78522;SHT31;67819;51.972;5.678;2023-06-22T05:16:11;20.5;68.9
78522;SHT31;67819;51.972;5.678;2023-06-22T05:18:40;20.5;68.8
78522;SHT31;67819;51.972;5.678;2023-06-22T05:21:11;20.6;69.3
78522;SHT31;67819;51.972;5.678;2023-06-22T05:23:40;20.8;68.8
78522;SHT31;67819;51.972;5.678;2023-06-22T05:26:08;21.0;67.7
78522;SHT31;67819;51.972;5.678;2023-06-22T05:28:37;21.2;67.6
78522;SHT31;67819;51.972;5.678;2023-06-22T05:31:06;21.4;65.9
78522;SHT31;67819;51.972;5.678;2023-06-22T05:33:35;21.5;66.0
78522;SHT31;67819;51.972;5.678;2023-06-22T05:36:04;21.7;66.2
78522;SHT31;67819;51.972;5.678;2023-06-22T05:38:33;22.0;65.0
78522;SHT31;67819;51.972;5.678;2023-06-22T05:41:02;22.3;63.6
78522;SHT31;67819;51.972;5.678;2023-06-22T05:43:31;22.6;62.0
78522;SHT31;67819;51.972;5.678;2023-06-22T05:46:01;22.8;61.1
78522;SHT31;67819;51.972;5.678;2023-06-22T05:48:30;22.9;60.5
78522;SHT31;67819;51.972;5.678;2023-06-22T05:50:59;23.0;60.5
78522;SHT31;67819;51.972;5.678;2023-06-22T05:53:27;23.1;60.5
78522;SHT31;67819;51.972;5.678;2023-06-22T05:55:56;23.3;60.0
78522;SHT31;67819;51.972;5.678;2023-06-22T05:58:25;23.5;60.1
78522;SHT31;67819;51.972;5.678;2023-06-22T06:00:53;23.7;59.3
78522;SHT31;67819;51.972;5.678;2023-06-22T06:03:22;24.0;58.0
78522;SHT31;67819;51.972;5.678;2023-06-22T06:05:52;24.3;57.7
78522;SHT31;67819;51.972;5.678;2023-06-22T06:08:21;24.6;57.3
78522;SHT31;67819;51.972;5.678;2023-06-22T06:10:50;24.9;55.9
78522;SHT31;67819;51.972;5.678;2023-06-22T06:13:19;25.1;55.6
78522;SHT31;67819;51.972;5.678;2023-06-22T06:15:47;25.4;54.3
78522;SHT31;67819;51.972;5.678;2023-06-22T06:18:17;25.6;53.5
78522;SHT31;67819;51.972;5.678;2023-06-22T06:20:46;25.7;53.7
78522;SHT31;67819;51.972;5.678;2023-06-22T06:23:15;25.7;53.2
78522;SHT31;67819;51.972;5.678;2023-06-22T06:25:43;25.8;54.0
78522;SHT31;67819;51.972;5.678;2023-06-22T06:28:12;25.9;53.0
78522;SHT31;67819;51.972;5.678;2023-06-22T06:30:40;26.0;53.0
78522;SHT31;67819;51.972;5.678;2023-06-22T06:33:09;26.0;52.9
78522;SHT31;67819;51.972;5.678;2023-06-22T06:35:40;26.1;53.2
78522;SHT31;67819;51.972;5.678;2023-06-22T06:38:08;26.1;52.7
78522;SHT31;67819;51.972;5.678;2023-06-22T06:40:37;26.1;52.5
78522;SHT31;67819;51.972;5.678;2023-06-22T06:43:05;26.0;52.6
78522;SHT31;67819;51.972;5.678;2023-06-22T06:45:34;25.9;53.3
78522;SHT31;67819;51.972;5.678;2023-06-22T06:48:03;25.8;53.8
78522;SHT31;67819;51.972;5.678;2023-06-22T06:50:31;25.7;53.9
78522;SHT31;67819;51.972;5.678;2023-06-22T06:53:00;25.6;54.2
78522;SHT31;67819;51.972;5.678;2023-06-22T06:55:29;25.4;53.4
78522;SHT31;67819;51.972;5.678;2023-06-22T06:57:59;25.3;54.4
78522;SHT31;67819;51.972;5.678;2023-06-22T07:00:28;25.2;55.0
78522;SHT31;67819;51.972;5.678;2023-06-22T07:02:56;25.1;54.7
78522;SHT31;67819;51.972;5.678;2023-06-22T07:05:25;25.0;55.4
78522;SHT31;67819;51.972;5.678;2023-06-22T07:07:53;25.0;54.4
78522;SHT31;67819;51.972;5.678;2023-06-22T07:10:22;24.9;54.9
78522;SHT31;67819;51.972;5.678;2023-06-22T07:12:51;24.9;54.6
78522;SHT31;67819;51.972;5.678;2023-06-22T07:15:19;24.8;54.7
78522;SHT31;67819;51.972;5.678;2023-06-22T07:17:48;24.8;55.2
78522;SHT31;67819;51.972;5.678;2023-06-22T07:20:17;24.7;55.5
78522;SHT31;67819;51.972;5.678;2023-06-22T07:22:46;24.7;55.2
78522;SHT31;67819;51.972;5.678;2023-06-22T07:25:15;24.7;55.7
78522;SHT31;67819;51.972;5.678;2023-06-22T07:27:56;24.7;54.8
78522;SHT31;67819;51.972;5.678;2023-06-22T07:30:23;24.7;55.2
78522;SHT31;67819;51.972;5.678;2023-06-22T07:32:53;24.7;55.2
78522;SHT31;67819;51.972;5.678;2023-06-22T07:35:22;24.8;54.6
78522;SHT31;67819;51.972;5.678;2023-06-22T07:37:50;24.8;55.1
78522;SHT31;67819;51.972;5.678;2023-06-22T07:40:21;24.9;55.5
78522;SHT31;67819;51.972;5.678;2023-06-22T07:42:49;25.0;53.7
78522;SHT31;67819;51.972;5.678;2023-06-22T07:45:19;25.0;53.8
78522;SHT31;67819;51.972;5.678;2023-06-22T07:47:48;25.1;53.5
78522;SHT31;67819;51.972;5.678;2023-06-22T07:50:16;25.1;53.5
78522;SHT31;67819;51.972;5.678;2023-06-22T07:52:45;25.1;53.3
78522;SHT31;67819;51.972;5.678;2023-06-22T07:55:14;25.2;51.4
78522;SHT31;67819;51.972;5.678;2023-06-22T07:57:43;25.2;51.7
78522;SHT31;67819;51.972;5.678;2023-06-22T08:00:14;25.2;51.8
78522;SHT31;67819;51.972;5.678;2023-06-22T08:02:45;25.2;51.7
78522;SHT31;67819;51.972;5.678;2023-06-22T08:05:15;25.2;51.7
78522;SHT31;67819;51.972;5.678;2023-06-22T08:07:45;25.2;51.1
78522;SHT31;67819;51.972;5.678;2023-06-22T08:10:14;25.2;50.9
78522;SHT31;67819;51.972;5.678;2023-06-22T08:12:45;25.2;50.8
78522;SHT31;67819;51.972;5.678;2023-06-22T08:15:14;25.2;51.4
78522;SHT31;67819;51.972;5.678;2023-06-22T08:17:43;25.3;51.4
78522;SHT31;67819;51.972;5.678;2023-06-22T08:20:13;25.3;52.3
78522;SHT31;67819;51.972;5.678;2023-06-22T08:22:42;25.3;51.9
78522;SHT31;67819;51.972;5.678;2023-06-22T08:25:11;25.4;52.6
78522;SHT31;67819;51.972;5.678;2023-06-22T08:27:44;25.4;52.8
78522;SHT31;67819;51.972;5.678;2023-06-22T08:30:14;25.5;52.5
78522;SHT31;67819;51.972;5.678;2023-06-22T08:32:44;25.5;52.8
78522;SHT31;67819;51.972;5.678;2023-06-22T08:35:14;25.5;51.1
78522;SHT31;67819;51.972;5.678;2023-06-22T08:37:43;25.6;50.5
78522;SHT31;67819;51.972;5.678;2023-06-22T08:40:17;25.6;50.8
78522;SHT31;67819;51.972;5.678;2023-06-22T08:42:46;25.6;50.9
78522;SHT31;67819;51.972;5.678;2023-06-22T08:45:16;25.6;51.5
78522;SHT31;67819;51.972;5.678;2023-06-22T08:47:44;25.7;51.0
78522;SHT31;67819;51.972;5.678;2023-06-22T08:50:13;25.7;51.9
78522;SHT31;67819;51.972;5.678;2023-06-22T08:52:42;25.8;51.3
78522;SHT31;67819;51.972;5.678;2023-06-22T08:55:12;25.9;51.4
78522;SHT31;67819;51.972;5.678;2023-06-22T08:57:40;25.9;50.5
78522;SHT31;67819;51.972;5.678;2023-06-22T09:00:11;26.0;49.8
78522;SHT31;67819;51.972;5.678;2023-06-22T09:02:44;26.0;50.3
78522;SHT31;67819;51.972;5.678;2023-06-22T09:05:13;26.1;49.4
78522;SHT31;67819;51.972;5.678;2023-06-22T09:07:44;26.1;48.3
78522;SHT31;67819;51.972;5.678;2023-06-22T09:10:12;26.2;47.8
78522;SHT31;67819;51.972;5.678;2023-06-22T09:12:41;26.2;47.8
78522;SHT31;67819;51.972;5.678;2023-06-22T09:15:10;26.3;47.1
78522;SHT31;67819;51.972;5.678;2023-06-22T09:17:41;26.3;47.1
78522;SHT31;67819;51.972;5.678;2023-06-22T09:20:12;26.4;45.8
78522;SHT31;67819;51.972;5.678;2023-06-22T09:22:41;26.4;46.5
78522;SHT31;67819;51.972;5.678;2023-06-22T09:25:12;26.4;46.4
78522;SHT31;67819;51.972;5.678;2023-06-22T09:27:41;26.5;45.9
78522;SHT31;67819;51.972;5.678;2023-06-22T09:30:10;26.5;45.5
78522;SHT31;67819;51.972;5.678;2023-06-22T09:32:39;26.5;46.3
78522;SHT31;67819;51.972;5.678;2023-06-22T09:35:09;26.5;45.8
78522;SHT31;67819;51.972;5.678;2023-06-22T09:37:39;26.6;44.1
78522;SHT31;67819;51.972;5.678;2023-06-22T09:40:10;26.6;44.5
78522;SHT31;67819;51.972;5.678;2023-06-22T09:42:39;26.6;43.6
78522;SHT31;67819;51.972;5.678;2023-06-22T09:45:08;26.6;43.9
78522;SHT31;67819;51.972;5.678;2023-06-22T09:47:37;26.6;43.9
78522;SHT31;67819;51.972;5.678;2023-06-22T09:50:06;26.6;43.8
78522;SHT31;67819;51.972;5.678;2023-06-22T09:52:36;26.5;44.4
78522;SHT31;67819;51.972;5.678;2023-06-22T09:55:05;26.5;45.8
78522;SHT31;67819;51.972;5.678;2023-06-22T09:57:34;26.5;45.6
78522;SHT31;67819;51.972;5.678;2023-06-22T10:00:03;26.5;45.7
78522;SHT31;67819;51.972;5.678;2023-06-22T10:02:35;26.4;45.2
78522;SHT31;67819;51.972;5.678;2023-06-22T10:05:04;26.4;45.3
78522;SHT31;67819;51.972;5.678;2023-06-22T10:07:34;26.4;45.9
78522;SHT31;67819;51.972;5.678;2023-06-22T10:10:07;26.4;47.0
78522;SHT31;67819;51.972;5.678;2023-06-22T10:12:35;26.3;46.3
78522;SHT31;67819;51.972;5.678;2023-06-22T10:15:05;26.3;46.8
78522;SHT31;67819;51.972;5.678;2023-06-22T10:17:33;26.3;47.8
78522;SHT31;67819;51.972;5.678;2023-06-22T10:20:02;26.3;47.6
78522;SHT31;67819;51.972;5.678;2023-06-22T10:22:37;26.3;48.2
78522;SHT31;67819;51.972;5.678;2023-06-22T10:25:06;26.2;47.0
78522;SHT31;67819;51.972;5.678;2023-06-22T10:27:35;26.2;47.4
78522;SHT31;67819;51.972;5.678;2023-06-22T10:30:09;26.2;47.5
78522;SHT31;67819;51.972;5.678;2023-06-22T10:32:39;26.2;47.8
78522;SHT31;67819;51.972;5.678;2023-06-22T10:35:09;26.1;48.1
78522;SHT31;67819;51.972;5.678;2023-06-22T10:37:40;26.1;48.4
78522;SHT31;67819;51.972;5.678;2023-06-22T10:40:13;26.1;49.1
78522;SHT31;67819;51.972;5.678;2023-06-22T10:42:42;26.1;49.4
78522;SHT31;67819;51.972;5.678;2023-06-22T10:45:11;26.1;49.3
78522;SHT31;67819;51.972;5.678;2023-06-22T10:47:40;26.1;49.7
78522;SHT31;67819;51.972;5.678;2023-06-22T10:50:10;26.1;49.5
78522;SHT31;67819;51.972;5.678;2023-06-22T10:52:39;26.2;50.1
78522;SHT31;67819;51.972;5.678;2023-06-22T10:55:09;26.2;50.0
78522;SHT31;67819;51.972;5.678;2023-06-22T10:57:38;26.2;50.5
78522;SHT31;67819;51.972;5.678;2023-06-22T11:00:10;26.2;50.5
78522;SHT31;67819;51.972;5.678;2023-06-22T11:02:39;26.3;50.7
78522;SHT31;67819;51.972;5.678;2023-06-22T11:05:08;26.3;49.0
78522;SHT31;67819;51.972;5.678;2023-06-22T11:07:37;26.3;49.5
78522;SHT31;67819;51.972;5.678;2023-06-22T11:10:07;26.3;49.3
78522;SHT31;67819;51.972;5.678;2023-06-22T11:12:36;26.3;49.4
78522;SHT31;67819;51.972;5.678;2023-06-22T11:15:06;26.2;50.0
78522;SHT31;67819;51.972;5.678;2023-06-22T11:17:35;26.2;49.1
78522;SHT31;67819;51.972;5.678;2023-06-22T11:20:04;26.2;49.0
78522;SHT31;67819;51.972;5.678;2023-06-22T11:22:37;26.2;48.7
78522;SHT31;67819;51.972;5.678;2023-06-22T11:25:06;26.2;49.3
78522;SHT31;67819;51.972;5.678;2023-06-22T11:27:35;26.1;49.5
78522;SHT31;67819;51.972;5.678;2023-06-22T11:30:04;26.1;49.3
78522;SHT31;67819;51.972;5.678;2023-06-22T11:32:35;26.1;50.9
78522;SHT31;67819;51.972;5.678;2023-06-22T11:35:04;26.1;50.9
78522;SHT31;67819;51.972;5.678;2023-06-22T11:37:33;26.0;49.9
78522;SHT31;67819;51.972;5.678;2023-06-22T11:40:02;26.0;49.9
78522;SHT31;67819;51.972;5.678;2023-06-22T11:42:35;26.0;49.9
78522;SHT31;67819;51.972;5.678;2023-06-22T11:45:05;25.9;52.2
78522;SHT31;67819;51.972;5.678;2023-06-22T11:47:34;25.9;51.7
78522;SHT31;67819;51.972;5.678;2023-06-22T11:50:03;25.9;52.9
78522;SHT31;67819;51.972;5.678;2023-06-22T11:52:33;25.9;52.7
78522;SHT31;67819;51.972;5.678;2023-06-22T11:55:02;25.9;52.9
78522;SHT31;67819;51.972;5.678;2023-06-22T11:57:33;25.8;52.6
78522;SHT31;67819;51.972;5.678;2023-06-22T12:00:02;25.8;53.8
78522;SHT31;67819;51.972;5.678;2023-06-22T12:02:39;25.7;55.9
78522;SHT31;67819;51.972;5.678;2023-06-22T12:05:08;25.6;56.7
78522;SHT31;67819;51.972;5.678;2023-06-22T12:07:39;25.4;58.1
78522;SHT31;67819;51.972;5.678;2023-06-22T12:10:08;25.3;57.9
78522;SHT31;67819;51.972;5.678;2023-06-22T12:12:36;25.2;60.7
78522;SHT31;67819;51.972;5.678;2023-06-22T12:15:05;25.0;61.8
78522;SHT31;67819;51.972;5.678;2023-06-22T12:17:34;24.9;62.4
78522;SHT31;67819;51.972;5.678;2023-06-22T12:20:03;24.8;62.4
78522;SHT31;67819;51.972;5.678;2023-06-22T12:22:33;24.7;63.3
78522;SHT31;67819;51.972;5.678;2023-06-22T12:25:01;24.6;65.2
78522;SHT31;67819;51.972;5.678;2023-06-22T12:27:30;24.5;66.2
78522;SHT31;67819;51.972;5.678;2023-06-22T12:29:59;24.4;66.8
78522;SHT31;67819;51.972;5.678;2023-06-22T12:32:29;24.3;66.1
78522;SHT31;67819;51.972;5.678;2023-06-22T12:34:58;24.2;67.4
78522;SHT31;67819;51.972;5.678;2023-06-22T12:37:27;24.1;68.8
78522;SHT31;67819;51.972;5.678;2023-06-22T12:39:56;24.1;69.2
78522;SHT31;67819;51.972;5.678;2023-06-22T12:42:24;24.0;68.3
78522;SHT31;67819;51.972;5.678;2023-06-22T12:44:54;23.9;71.1
78522;SHT31;67819;51.972;5.678;2023-06-22T12:47:23;23.8;71.3
78522;SHT31;67819;51.972;5.678;2023-06-22T12:49:51;23.7;72.4
78522;SHT31;67819;51.972;5.678;2023-06-22T12:52:20;23.6;70.9
78522;SHT31;67819;51.972;5.678;2023-06-22T12:54:49;23.5;70.2
78522;SHT31;67819;51.972;5.678;2023-06-22T12:57:18;23.4;71.3
78522;SHT31;67819;51.972;5.678;2023-06-22T12:59:47;23.3;72.7
78522;SHT31;67819;51.972;5.678;2023-06-22T13:02:16;23.2;73.7
78522;SHT31;67819;51.972;5.678;2023-06-22T13:04:45;23.1;74.7
78522;SHT31;67819;51.972;5.678;2023-06-22T13:07:13;23.0;75.2
78522;SHT31;67819;51.972;5.678;2023-06-22T13:09:42;23.0;74.7
78522;SHT31;67819;51.972;5.678;2023-06-22T13:12:12;22.9;74.4
78522;SHT31;67819;51.972;5.678;2023-06-22T13:14:41;22.8;78.5
78522;SHT31;67819;51.972;5.678;2023-06-22T13:17:10;22.8;79.4
78522;SHT31;67819;51.972;5.678;2023-06-22T13:19:38;22.8;77.5
78522;SHT31;67819;51.972;5.678;2023-06-22T13:22:27;22.8;77.7
78522;SHT31;67819;51.972;5.678;2023-06-22T13:24:59;22.8;77.0
78522;SHT31;67819;51.972;5.678;2023-06-22T13:27:28;22.8;75.8
78522;SHT31;67819;51.972;5.678;2023-06-22T13:29:57;22.8;74.7
78522;SHT31;67819;51.972;5.678;2023-06-22T13:32:26;22.7;78.4
78522;SHT31;67819;51.972;5.678;2023-06-22T13:34:54;22.7;76.6
78522;SHT31;67819;51.972;5.678;2023-06-22T13:37:23;22.6;78.9
78522;SHT31;67819;51.972;5.678;2023-06-22T13:39:52;22.6;77.2
78522;SHT31;67819;51.972;5.678;2023-06-22T13:42:23;22.6;76.8
78522;SHT31;67819;51.972;5.678;2023-06-22T13:44:52;22.5;75.7
78522;SHT31;67819;51.972;5.678;2023-06-22T13:47:21;22.5;77.0
78522;SHT31;67819;51.972;5.678;2023-06-22T13:49:49;22.5;77.6
78522;SHT31;67819;51.972;5.678;2023-06-22T13:52:18;22.4;78.6
78522;SHT31;67819;51.972;5.678;2023-06-22T13:54:47;22.3;79.1
78522;SHT31;67819;51.972;5.678;2023-06-22T13:57:15;22.2;78.9
78522;SHT31;67819;51.972;5.678;2023-06-22T13:59:44;22.1;78.8
78522;SHT31;67819;51.972;5.678;2023-06-22T14:02:12;22.0;79.8
78522;SHT31;67819;51.972;5.678;2023-06-22T14:04:41;21.9;80.5
78522;SHT31;67819;51.972;5.678;2023-06-22T14:07:10;21.8;81.2
78522;SHT31;67819;51.972;5.678;2023-06-22T14:09:38;21.6;81.0
78522;SHT31;67819;51.972;5.678;2023-06-22T14:12:07;21.5;81.8
78522;SHT31;67819;51.972;5.678;2023-06-22T14:14:36;21.4;82.2
78522;SHT31;67819;51.972;5.678;2023-06-22T14:17:05;21.2;82.1
78522;SHT31;67819;51.972;5.678;2023-06-22T14:19:34;21.1;82.6
78522;SHT31;67819;51.972;5.678;2023-06-22T14:22:03;21.0;83.6
78522;SHT31;67819;51.972;5.678;2023-06-22T14:24:32;20.9;83.5
78522;SHT31;67819;51.972;5.678;2023-06-22T14:27:01;20.8;83.6
78522;SHT31;67819;51.972;5.678;2023-06-22T14:29:31;20.7;84.4
78522;SHT31;67819;51.972;5.678;2023-06-22T14:31:59;20.6;84.5
78522;SHT31;67819;51.972;5.678;2023-06-22T14:34:28;20.5;84.7
78522;SHT31;67819;51.972;5.678;2023-06-22T14:36:57;20.5;83.5
78522;SHT31;67819;51.972;5.678;2023-06-22T14:39:25;20.4;84.3
78522;SHT31;67819;51.972;5.678;2023-06-22T14:41:54;20.3;84.4
78522;SHT31;67819;51.972;5.678;2023-06-22T14:44:25;20.2;85.3
78522;SHT31;67819;51.972;5.678;2023-06-22T14:46:55;20.2;86.0
78522;SHT31;67819;51.972;5.678;2023-06-22T14:49:24;20.1;86.5
78522;SHT31;67819;51.972;5.678;2023-06-22T14:51:52;20.1;85.4
78522;SHT31;67819;51.972;5.678;2023-06-22T14:54:21;20.1;85.2
78522;SHT31;67819;51.972;5.678;2023-06-22T14:56:50;20.0;85.5
78522;SHT31;67819;51.972;5.678;2023-06-22T14:59:19;20.0;85.3
78522;SHT31;67819;51.972;5.678;2023-06-22T15:01:47;19.9;85.8
78522;SHT31;67819;51.972;5.678;2023-06-22T15:04:16;19.9;85.9
78522;SHT31;67819;51.972;5.678;2023-06-22T15:06:44;19.9;85.9
78522;SHT31;67819;51.972;5.678;2023-06-22T15:09:13;19.8;86.3
78522;SHT31;67819;51.972;5.678;2023-06-22T15:11:41;19.8;86.6
78522;SHT31;67819;51.972;5.678;2023-06-22T15:14:10;19.8;86.6
78522;SHT31;67819;51.972;5.678;2023-06-22T15:16:41;19.8;86.8
78522;SHT31;67819;51.972;5.678;2023-06-22T15:19:10;19.8;87.1
78522;SHT31;67819;51.972;5.678;2023-06-22T15:21:39;19.7;87.1
78522;SHT31;67819;51.972;5.678;2023-06-22T15:24:08;19.7;87.6
78522;SHT31;67819;51.972;5.678;2023-06-22T15:26:36;19.7;87.8
78522;SHT31;67819;51.972;5.678;2023-06-22T15:29:05;19.7;88.2
78522;SHT31;67819;51.972;5.678;2023-06-22T15:31:34;19.8;87.8
78522;SHT31;67819;51.972;5.678;2023-06-22T15:34:02;19.8;87.5
78522;SHT31;67819;51.972;5.678;2023-06-22T15:36:31;19.8;87.9
78522;SHT31;67819;51.972;5.678;2023-06-22T15:39:00;19.8;88.1
78522;SHT31;67819;51.972;5.678;2023-06-22T15:41:28;19.8;87.7
78522;SHT31;67819;51.972;5.678;2023-06-22T15:43:57;19.8;87.9
78522;SHT31;67819;51.972;5.678;2023-06-22T15:46:26;19.8;87.9
78522;SHT31;67819;51.972;5.678;2023-06-22T15:48:56;19.8;88.1
78522;SHT31;67819;51.972;5.678;2023-06-22T15:51:25;19.8;88.6
78522;SHT31;67819;51.972;5.678;2023-06-22T15:53:55;19.8;88.4
78522;SHT31;67819;51.972;5.678;2023-06-22T15:56:23;19.8;88.7
78522;SHT31;67819;51.972;5.678;2023-06-22T15:58:52;19.9;88.8
78522;SHT31;67819;51.972;5.678;2023-06-22T16:01:23;19.9;89.2
78522;SHT31;67819;51.972;5.678;2023-06-22T16:03:54;19.9;89.3
78522;SHT31;67819;51.972;5.678;2023-06-22T16:06:22;19.9;89.5
78522;SHT31;67819;51.972;5.678;2023-06-22T16:08:51;19.9;89.5
78522;SHT31;67819;51.972;5.678;2023-06-22T16:11:20;19.9;89.3
78522;SHT31;67819;51.972;5.678;2023-06-22T16:13:48;19.9;89.2
78522;SHT31;67819;51.972;5.678;2023-06-22T16:16:17;19.9;89.6